»·PEaware :: N8676U KFUL-KLAS

N8676U :: KFUL-KLAS

FLIGHT INFORMATION

Flight Status: Arrived
Operator: Privately registered:
United States
More flights under this callsign
Pilot: Anonymous 18083 (18083)
Aircraft: PIPER PA-28 CHEROKEE ARCHER
(PA28)
More flights by this aircraft type
Origin: KFUL Fullerton Mun
United States
Destination: KLAS McCarran Intl
United States
More flights between these airports :: More routes between these airports
Route: +ANAHM1 HEC CRESO4
File this flight plan on PilotEdge
Remarks: Sample flight plan
Altitude:
(Current/Filed)
11,000ft
Speed:
(Current/Filed)
100kts
Departed: 04-Jun-19 02:25 PM
Arrived: 04-Jun-19 04:03 PM
Distance/Time
Traveled:
192nm/1:37
Distance/Time
To Go:
Arrived

Flight Plot

Page will automatically refresh every two minutes.

Flight plan parsing failed; only flown route is shown


Map Options




Map Legend


Flown Route
Filed Route
Departure Airport
Arrival Airport
Navaid (VOR, NDB)
Fix

Horizontal Profiles

Position Reports

Time Latitude Longitude Heading Altitude Ground
Speed
04-Jun-19 14:06 33.870567 -117.979330 359 92ft 0kts
04-Jun-19 14:07 33.870567 -117.979330 359 92ft 0kts
04-Jun-19 14:08 33.870567 -117.979330 359 92ft 0kts
04-Jun-19 14:09 33.870567 -117.979330 359 92ft 0kts
04-Jun-19 14:10 33.870567 -117.979330 359 92ft 0kts
04-Jun-19 14:11 33.870567 -117.979330 359 92ft 0kts
04-Jun-19 14:12 33.870567 -117.979330 359 92ft 0kts
04-Jun-19 14:13 33.870567 -117.979330 359 92ft 0kts
04-Jun-19 14:14 33.870567 -117.979330 359 92ft 0kts
04-Jun-19 14:15 33.870567 -117.979330 359 92ft 0kts
04-Jun-19 14:16 33.870567 -117.979330 359 92ft 0kts
04-Jun-19 14:17 33.870567 -117.979330 359 92ft 0kts
04-Jun-19 14:18 33.870567 -117.979330 359 92ft 0kts
04-Jun-19 14:19 33.870573 -117.979330 359 92ft 0kts
04-Jun-19 14:19 33.871824 -117.978651 76 92ft 13kts
04-Jun-19 14:21 33.872178 -117.976080 247 95ft 0kts
04-Jun-19 14:22 33.872178 -117.976081 247 95ft 0kts
04-Jun-19 14:22 33.872374 -117.975781 76 95ft 16kts
04-Jun-19 14:24 33.872905 -117.975238 256 95ft 0kts
04-Jun-19 14:25 33.870656 -117.993445 266 652ft 80kts
04-Jun-19 14:25 33.867193 -118.015939 229 1013ft 89kts
04-Jun-19 14:27 33.842552 -117.998497 115 1475ft 106kts
04-Jun-19 14:27 33.832293 -117.973810 129 1956ft 95kts
04-Jun-19 14:28 33.816947 -117.951582 136 2488ft 84kts
04-Jun-19 14:29 33.812461 -117.922854 74 2963ft 90kts
04-Jun-19 14:30 33.820288 -117.894420 55 3481ft 90kts
04-Jun-19 14:31 33.830449 -117.865691 67 4008ft 96kts
04-Jun-19 14:32 33.838929 -117.834461 68 4522ft 100kts
04-Jun-19 14:33 33.847412 -117.802255 68 5038ft 101kts
04-Jun-19 14:34 33.855752 -117.770323 67 5559ft 98kts
04-Jun-19 14:35 33.863531 -117.740353 65 6026ft 87kts
04-Jun-19 14:36 33.870632 -117.713397 64 6436ft 83kts
04-Jun-19 14:37 33.877634 -117.686680 64 6860ft 84kts
04-Jun-19 14:38 33.885038 -117.660117 64 7212ft 84kts
04-Jun-19 14:39 33.894571 -117.632745 62 7471ft 89kts
04-Jun-19 14:40 33.898909 -117.609268 70 7680ft 94kts
04-Jun-19 14:41 33.905339 -117.581320 62 8014ft 83kts
04-Jun-19 14:42 33.913248 -117.551704 68 8167ft 96kts
04-Jun-19 14:43 33.926972 -117.526518 30 8382ft 92kts
04-Jun-19 14:44 33.949681 -117.511474 25 8586ft 94kts
04-Jun-19 14:45 33.973313 -117.497139 25 8789ft 95kts
04-Jun-19 14:46 33.997892 -117.482384 25 9103ft 98kts
04-Jun-19 14:47 34.021472 -117.468235 25 9553ft 89kts
04-Jun-19 14:48 34.043180 -117.455209 25 9918ft 87kts
04-Jun-19 14:49 34.065394 -117.441873 25 10234ft 90kts
04-Jun-19 14:50 34.088371 -117.428092 25 10550ft 94kts
04-Jun-19 14:51 34.112200 -117.413765 25 10873ft 95kts
04-Jun-19 14:52 34.137338 -117.398628 25 11016ft 112kts
04-Jun-19 14:53 34.167262 -117.380511 25 11011ft 126kts
04-Jun-19 14:54 34.199525 -117.360991 25 11010ft 132kts
04-Jun-19 14:55 34.232711 -117.340931 26 11011ft 134kts
04-Jun-19 14:56 34.266264 -117.320694 27 11010ft 136kts
04-Jun-19 14:57 34.300215 -117.300132 27 11010ft 137kts
04-Jun-19 14:58 34.334392 -117.279436 27 11010ft 137kts
04-Jun-19 14:59 34.368250 -117.258926 27 11061ft 134kts
04-Jun-19 15:00 34.402062 -117.238399 26 11064ft 137kts
04-Jun-19 15:01 34.436901 -117.217275 26 11028ft 140kts
04-Jun-19 15:02 34.471878 -117.196021 26 11026ft 140kts
04-Jun-19 15:03 34.506837 -117.174767 26 11009ft 141kts
04-Jun-19 15:04 34.541812 -117.153269 34 11003ft 141kts
04-Jun-19 15:05 34.561390 -117.112011 62 11009ft 142kts
04-Jun-19 15:06 34.577947 -117.068312 63 11008ft 142kts
04-Jun-19 15:07 34.594250 -117.023944 63 10930ft 147kts
04-Jun-19 15:08 34.610381 -116.979677 63 11016ft 140kts
04-Jun-19 15:09 34.626200 -116.936232 63 11017ft 141kts
04-Jun-19 15:10 34.642131 -116.892369 63 11018ft 142kts
04-Jun-19 15:11 34.658072 -116.848420 63 11017ft 142kts
04-Jun-19 15:12 34.674044 -116.804327 63 11017ft 142kts
04-Jun-19 15:13 34.689989 -116.760255 63 11018ft 143kts
04-Jun-19 15:14 34.706143 -116.715536 64 11020ft 146kts
04-Jun-19 15:15 34.722683 -116.669676 63 11018ft 149kts
04-Jun-19 15:16 34.739315 -116.623499 63 11018ft 149kts
04-Jun-19 15:17 34.755982 -116.577080 63 11018ft 149kts
04-Jun-19 15:18 34.772578 -116.530929 63 11015ft 148kts
04-Jun-19 15:19 34.789080 -116.484938 63 11022ft 150kts
04-Jun-19 15:20 34.812513 -116.443290 45 11018ft 151kts
04-Jun-19 15:21 34.841091 -116.405456 44 11017ft 152kts
04-Jun-19 15:22 34.869768 -116.367899 44 11017ft 150kts
04-Jun-19 15:23 34.898296 -116.330592 45 11017ft 149kts
04-Jun-19 15:24 34.926565 -116.293598 45 11017ft 149kts
04-Jun-19 15:25 34.954858 -116.256525 45 11032ft 148kts
04-Jun-19 15:26 34.983040 -116.219625 46 11043ft 149kts
04-Jun-19 15:27 35.011010 -116.182879 47 11045ft 147kts
04-Jun-19 15:28 35.038759 -116.146367 47 11045ft 146kts
04-Jun-19 15:29 35.066438 -116.109932 47 11045ft 146kts
04-Jun-19 15:30 35.094000 -116.073620 47 11045ft 146kts
04-Jun-19 15:31 35.121657 -116.037146 47 11045ft 146kts
04-Jun-19 15:32 35.149273 -116.000695 47 11045ft 146kts
04-Jun-19 15:33 35.176883 -115.964193 47 11045ft 146kts
04-Jun-19 15:34 35.204505 -115.927648 47 11045ft 146kts
04-Jun-19 15:35 35.231807 -115.891485 47 11045ft 143kts
04-Jun-19 15:36 35.258770 -115.855731 47 11046ft 143kts
04-Jun-19 15:37 35.285774 -115.819861 46 11045ft 143kts
04-Jun-19 15:38 35.312885 -115.783862 45 11045ft 144kts
04-Jun-19 15:39 35.340286 -115.747527 46 11045ft 145kts
04-Jun-19 15:40 35.367638 -115.711165 46 11064ft 146kts
04-Jun-19 15:41 35.395276 -115.674285 46 11064ft 147kts
04-Jun-19 15:42 35.422987 -115.637274 46 11064ft 147kts
04-Jun-19 15:43 35.450766 -115.600128 46 11064ft 148kts
04-Jun-19 15:44 35.478669 -115.562784 46 11064ft 148kts
04-Jun-19 15:45 35.506470 -115.525531 46 11066ft 148kts
04-Jun-19 15:46 35.534345 -115.488166 46 11063ft 148kts
04-Jun-19 15:47 35.562143 -115.450864 46 11064ft 148kts
04-Jun-19 15:48 35.589944 -115.413513 46 11062ft 148kts
04-Jun-19 15:49 35.621334 -115.383022 14 11065ft 146kts
04-Jun-19 15:50 35.660806 -115.370527 13 11064ft 147kts
04-Jun-19 15:51 35.704332 -115.356806 13 10363ft 178kts
04-Jun-19 15:52 35.754774 -115.343673 11 9411ft 188kts
04-Jun-19 15:53 35.806032 -115.330835 11 8520ft 186kts
04-Jun-19 15:54 35.854541 -115.311116 23 7705ft 182kts
04-Jun-19 15:55 35.900076 -115.285710 23 6890ft 178kts
04-Jun-19 15:56 35.945008 -115.260478 23 6103ft 175kts
04-Jun-19 15:57 35.986855 -115.229848 26 5351ft 173kts
04-Jun-19 15:58 36.022096 -115.203949 27 4857ft 113kts
04-Jun-19 15:59 36.042553 -115.190004 26 3630ft 73kts
04-Jun-19 16:00 36.061340 -115.178778 26 2588ft 74kts
04-Jun-19 16:01 36.079286 -115.168264 24 2202ft 69kts
04-Jun-19 16:02 36.089461 -115.163595 321 2128ft 9kts
04-Jun-19 16:03 36.094198 -115.161337 342 2107ft 12kts
04-Jun-19 16:04 36.097726 -115.160318 319 2097ft 7kts

Navigation Log

Ident Type
Flight plan parsing failed, navigation log unavailable